PAWGPAPG

Guest
Details From PAWG - Wrangell
To PAPG - Petersburg James A Johnson
Flight Number -
Tags Routegen Generated
Created
Modified
Stats Distance 30 nm / 55 km
Max Altitude 100 ft / 30 m
Waypoints 5
Social Downloads 10
Likes 0
Share

Download

Looking for another format? Having issues loading an existing format? Contact us
Advertisement - Login to hide

Notes

Departing runway 30 PAWG. Arriving runway 7 PAPG.

Route

PAWG +56.53_-132.49 +56.68_-132.65 +56.83_-132.81 PAPG

ID Type Via Altitude (ft/m) Position (lat/lon) Dist (leg/tot) Name
O PAWG APT - 0 / 0 56.48860 / -132.38250 - / 0 nm
+56.53_-132.49 LATLON - 100 / 30 56.52631 / -132.49443 4 / 4 nm
+56.68_-132.65 LATLON - 100 / 30 56.67724 / -132.65037 10 / 14 nm
+56.83_-132.81 LATLON - 100 / 30 56.82818 / -132.80631 10 / 25 nm
O PAPG APT - 0 / 0 56.80436 / -132.93116 4 / 29 nm

Altitude Profile

Advertisement - Login to hide

PAWG

Details ICAO PAWG (WRG)
Name Wrangell
Region USA (Alaska)
Timezone America/Juneau (UTC-9.0)
Stats Elevation 44 ft / 13 m (AMSL)
Location 56.484300° -132.370000°
Runways 1
Magnetic Variation 18.011° E

METAR

PAWG 211956Z 12003KT 10SM BKN140 M01/M02 A3034

Decode

TAF

PAWG 211739Z 2118/2218 12004KT P6SM VCFG FEW004 FM212100 35004KT P6SM BKN100 FM220300 07006KT P6SM SCT100 AMD LTD TO CLD VIS AND WIND 2206/2215

Decode

Departure Runways

ID Width Length Bearing (true/mag) Surface Threshold Overrun Markings Lighting
10 157 ft / 48 m 5,985 ft / 1,824 m 121.40° / 103.39° ASPHALT 0 ft / 0 m 197 ft / 60 m PREC-APP CENTERLINE EDGE THRESHOLD
28 157 ft / 48 m 5,985 ft / 1,824 m 301.42° / 283.41° ASPHALT 0 ft / 0 m 197 ft / 60 m PREC-APP CENTERLINE EDGE THRESHOLD

PAPG

Details ICAO PAPG (PSG)
Name Petersburg James A. Johnson
Region USA (Alaska)
Timezone America/Juneau (UTC-9.0)
Stats Elevation 113 ft / 34 m (AMSL)
Location 56.801500° -132.946000°
Runways 1
Magnetic Variation 18.050° E

METAR

PAPG 211956Z 00000KT 10SM SCT013 BKN017 M01/M01 A3034 RMK AO2 SLP277 T10061006

Decode

TAF

PAPG 211739Z 2118/2218 00000KT P6SM VCFG OVC019 FM212100 VRB02KT P6SM SCT005 BKN050 FM220000 VRB03KT P6SM SCT100 AMD LTD TO CLD VIS AND WIND 2206/2215

Decode

Destination Runways

ID Width Length Bearing (true/mag) Surface Threshold Overrun Markings Lighting
05 150 ft / 46 m 6,382 ft / 1,945 m 70.70° / 52.65° ASPHALT 0 ft / 0 m 200 ft / 61 m PREC-APP CENTERLINE EDGE THRESHOLD RAIL REIL-OMNI
23 150 ft / 46 m 6,382 ft / 1,945 m 250.72° / 232.67° ASPHALT 400 ft / 122 m 200 ft / 61 m PREC-APP CENTERLINE EDGE THRESHOLD ODALS REIL-OMNI

Approach Navaids

Runway Type Ident Frequency Range Bearing (true/mag) Slope Elevation
23 LOC-LOC IPSG 110.50 MHz 18 nm / 33 km 250.71° / 232.66 ° - 113 ft / 34 m (AMSL)

Popular Alternatives